Roscommon, MI

11:28 AM EST on December 22, 2014 (GMT -0500)
Higgins Lake Point Detroit | Change Station
CLOSE
Current Station
Personal Weather Station
Location: Roscommon, MI
Elevation: 1165 ft
Nearby Weather Stations

Elev 1165 ft 44.47 °N, 84.71 °W | Updated 3 seconds ago

Partly Cloudy
Partly Cloudy
29.3 °F
Feels Like 29 °F
N
0.0
Wind Variable Wind from NNE
Gusts 3.1 mph

Today
High -- | Low -- °F
--% Chance of Precip.
Yesterday
High -- | Low -- °F
Precip. -- in
8:12 AM 5:02 PM
New Moon, 1% visible
Pressure 30.11 in
Visibility 7.0 miles
Clouds Few 9000 ft
Windchill 29 °F
Dew Point 26 °F
Humidity 87%
Rainfall 0.00 in
Snow Depth Not available.
UV 1 out of 12
Pollen .10 out of 12
Air Quality Not available.
Flu Activity Not available.
METAR KHTL 221553Z AUTO 14011KT 7SM FEW090 M02/M05 A3006 RMK AO2 SLP196 T10171050

More Conditions Fewer Conditions

Pressure 30.11 in
Visibility 7.0 miles
Clouds Few 9000 ft
Windchill 29 °F
Dew Point 26 °F
Humidity 87%
Rainfall 0.00 in
Snow Depth Not available.
UV 1 out of 12
Pollen .10 out of 12
Air Quality Not available.
Flu Activity Not available.
METAR KHTL 221553Z AUTO 14011KT 7SM FEW090 M02/M05 A3006 RMK AO2 SLP196 T10171050

More Conditions Fewer Conditions

Nowcast | as of 11:00 am EST on December 22, 2014

At 12 PM...partly cloudy. Temperature 30. Southeast winds 9 mph. At 2 PM...partly cloudy. Temperature 31. Southeast winds 9 mph. At 4 PM...partly cloudy. Temperature 31. East winds 9 mph. At 6 PM...mostly cloudy. Temperature 31. East winds 9 mph.

×

10-Day Weather Forecast

Almanac

Astronomy

Dec. 22, 2014 Rise Set
Actual Time
Civil Twilight
Nautical Twilight
Astronomical Twilight
Moon
Length of Visible Light
Length of Day
Tomorrow will be .
, % of the Moon is Illuminated

Today's Extremes

State Highs State Lows

Community

WunderPhotos

Upload Photos

1,779,632 photos uploaded!

WunderBlogs® & News

Nearby

Air Quality

  Air Quality AQ Index Pollutant
Not available.

Snow Depth

Station Depth Elevation

Earthquake Activity

City Distance Mag. Time & Date
Minimum magnitude displayed is 2.5.

Coastal Water Temperatures

Place Temperature

Nearby Weather Stations